sensor_id;sensor_type;location;lat;lon;timestamp;P1;durP1;ratioP1;P2;durP2;ratioP2
3997;SDS011;61314;53.444;9.902;2023-04-27T00:01:38;4.95;;;4.40;;
3997;SDS011;61314;53.444;9.902;2023-04-27T00:04:05;14.25;;;5.55;;
3997;SDS011;61314;53.444;9.902;2023-04-27T00:06:32;7.05;;;5.43;;
3997;SDS011;61314;53.444;9.902;2023-04-27T00:08:59;12.07;;;6.75;;
3997;SDS011;61314;53.444;9.902;2023-04-27T00:11:27;8.60;;;5.80;;
3997;SDS011;61314;53.444;9.902;2023-04-27T00:13:54;9.88;;;5.85;;
3997;SDS011;61314;53.444;9.902;2023-04-27T00:16:21;9.65;;;5.65;;
3997;SDS011;61314;53.444;9.902;2023-04-27T00:18:48;10.68;;;5.15;;
3997;SDS011;61314;53.444;9.902;2023-04-27T00:21:15;18.75;;;5.65;;
3997;SDS011;61314;53.444;9.902;2023-04-27T00:23:43;8.52;;;4.88;;
3997;SDS011;61314;53.444;9.902;2023-04-27T00:26:10;8.73;;;6.00;;
3997;SDS011;61314;53.444;9.902;2023-04-27T00:28:37;9.85;;;5.03;;
3997;SDS011;61314;53.444;9.902;2023-04-27T00:31:03;9.60;;;5.03;;
3997;SDS011;61314;53.444;9.902;2023-04-27T00:33:31;8.00;;;5.32;;
3997;SDS011;61314;53.444;9.902;2023-04-27T00:35:58;10.57;;;5.78;;
3997;SDS011;61314;53.444;9.902;2023-04-27T00:38:26;6.15;;;3.80;;
3997;SDS011;61314;53.444;9.902;2023-04-27T00:41:00;6.30;;;4.90;;
3997;SDS011;61314;53.444;9.902;2023-04-27T00:43:27;6.13;;;4.10;;
3997;SDS011;61314;53.444;9.902;2023-04-27T00:45:54;8.55;;;4.55;;
3997;SDS011;61314;53.444;9.902;2023-04-27T00:48:22;5.00;;;4.60;;
3997;SDS011;61314;53.444;9.902;2023-04-27T00:50:49;6.13;;;4.65;;
3997;SDS011;61314;53.444;9.902;2023-04-27T00:53:16;8.25;;;5.03;;
3997;SDS011;61314;53.444;9.902;2023-04-27T00:55:43;10.52;;;5.30;;
3997;SDS011;61314;53.444;9.902;2023-04-27T00:58:10;10.30;;;5.90;;
3997;SDS011;61314;53.444;9.902;2023-04-27T01:00:37;12.88;;;5.10;;
3997;SDS011;61314;53.444;9.902;2023-04-27T01:03:06;13.43;;;5.85;;
3997;SDS011;61314;53.444;9.902;2023-04-27T01:05:33;10.52;;;5.68;;
3997;SDS011;61314;53.444;9.902;2023-04-27T01:08:02;9.13;;;4.78;;
3997;SDS011;61314;53.444;9.902;2023-04-27T01:10:29;7.30;;;5.30;;
3997;SDS011;61314;53.444;9.902;2023-04-27T01:12:56;7.97;;;5.13;;
3997;SDS011;61314;53.444;9.902;2023-04-27T01:15:23;10.40;;;5.30;;
3997;SDS011;61314;53.444;9.902;2023-04-27T01:18:00;13.02;;;5.85;;
3997;SDS011;61314;53.444;9.902;2023-04-27T01:20:28;9.70;;;4.90;;
3997;SDS011;61314;53.444;9.902;2023-04-27T01:22:55;8.20;;;6.20;;
3997;SDS011;61314;53.444;9.902;2023-04-27T01:25:22;7.05;;;4.72;;
3997;SDS011;61314;53.444;9.902;2023-04-27T01:27:49;10.45;;;7.32;;
3997;SDS011;61314;53.444;9.902;2023-04-27T01:30:16;7.35;;;5.10;;
3997;SDS011;61314;53.444;9.902;2023-04-27T01:32:44;12.65;;;6.15;;
3997;SDS011;61314;53.444;9.902;2023-04-27T01:35:11;14.57;;;6.00;;
3997;SDS011;61314;53.444;9.902;2023-04-27T01:37:38;10.75;;;6.35;;
3997;SDS011;61314;53.444;9.902;2023-04-27T01:40:05;7.82;;;5.28;;
3997;SDS011;61314;53.444;9.902;2023-04-27T01:42:33;13.13;;;6.18;;
3997;SDS011;61314;53.444;9.902;2023-04-27T01:45:00;7.97;;;5.60;;
3997;SDS011;61314;53.444;9.902;2023-04-27T01:47:27;6.78;;;5.53;;
3997;SDS011;61314;53.444;9.902;2023-04-27T01:49:54;10.13;;;5.28;;
3997;SDS011;61314;53.444;9.902;2023-04-27T01:52:21;7.95;;;5.15;;
3997;SDS011;61314;53.444;9.902;2023-04-27T01:54:48;13.02;;;6.60;;
3997;SDS011;61314;53.444;9.902;2023-04-27T01:57:14;9.88;;;5.38;;
3997;SDS011;61314;53.444;9.902;2023-04-27T01:59:42;10.75;;;4.85;;
3997;SDS011;61314;53.444;9.902;2023-04-27T02:02:09;10.80;;;5.82;;
3997;SDS011;61314;53.444;9.902;2023-04-27T02:04:36;14.50;;;5.78;;
3997;SDS011;61314;53.444;9.902;2023-04-27T02:07:04;14.27;;;5.75;;
3997;SDS011;61314;53.444;9.902;2023-04-27T02:09:31;8.32;;;5.80;;
3997;SDS011;61314;53.444;9.902;2023-04-27T02:11:58;8.43;;;5.30;;
3997;SDS011;61314;53.444;9.902;2023-04-27T02:14:26;8.70;;;5.15;;
3997;SDS011;61314;53.444;9.902;2023-04-27T02:16:53;12.35;;;5.70;;
3997;SDS011;61314;53.444;9.902;2023-04-27T02:19:20;14.57;;;6.22;;
3997;SDS011;61314;53.444;9.902;2023-04-27T02:21:47;14.73;;;5.93;;
3997;SDS011;61314;53.444;9.902;2023-04-27T02:24:14;8.07;;;5.10;;
3997;SDS011;61314;53.444;9.902;2023-04-27T02:26:41;10.80;;;5.53;;
3997;SDS011;61314;53.444;9.902;2023-04-27T02:29:09;10.43;;;5.90;;
3997;SDS011;61314;53.444;9.902;2023-04-27T02:31:36;8.57;;;5.60;;
3997;SDS011;61314;53.444;9.902;2023-04-27T02:34:03;12.02;;;5.47;;
3997;SDS011;61314;53.444;9.902;2023-04-27T02:36:30;11.48;;;5.50;;
3997;SDS011;61314;53.444;9.902;2023-04-27T02:38:57;8.80;;;5.72;;
3997;SDS011;61314;53.444;9.902;2023-04-27T02:41:24;11.95;;;5.03;;
3997;SDS011;61314;53.444;9.902;2023-04-27T02:43:53;7.90;;;5.57;;
3997;SDS011;61314;53.444;9.902;2023-04-27T02:46:20;6.82;;;5.20;;
3997;SDS011;61314;53.444;9.902;2023-04-27T02:48:47;7.40;;;4.80;;
3997;SDS011;61314;53.444;9.902;2023-04-27T02:51:14;6.95;;;4.57;;
3997;SDS011;61314;53.444;9.902;2023-04-27T02:53:41;11.85;;;4.78;;
3997;SDS011;61314;53.444;9.902;2023-04-27T02:56:08;11.90;;;5.70;;
3997;SDS011;61314;53.444;9.902;2023-04-27T02:58:35;10.18;;;6.30;;
3997;SDS011;61314;53.444;9.902;2023-04-27T03:01:02;6.75;;;5.68;;
3997;SDS011;61314;53.444;9.902;2023-04-27T03:03:29;10.32;;;5.70;;
3997;SDS011;61314;53.444;9.902;2023-04-27T03:05:57;9.77;;;5.53;;
3997;SDS011;61314;53.444;9.902;2023-04-27T03:08:24;8.18;;;6.03;;
3997;SDS011;61314;53.444;9.902;2023-04-27T03:10:51;16.80;;;5.68;;
3997;SDS011;61314;53.444;9.902;2023-04-27T03:13:18;15.93;;;5.90;;
3997;SDS011;61314;53.444;9.902;2023-04-27T03:15:45;11.55;;;6.78;;
3997;SDS011;61314;53.444;9.902;2023-04-27T03:18:12;15.20;;;5.70;;
3997;SDS011;61314;53.444;9.902;2023-04-27T03:20:39;9.77;;;5.85;;
3997;SDS011;61314;53.444;9.902;2023-04-27T03:23:06;12.93;;;5.40;;
3997;SDS011;61314;53.444;9.902;2023-04-27T03:25:34;5.85;;;5.20;;
3997;SDS011;61314;53.444;9.902;2023-04-27T03:28:01;6.85;;;5.40;;
3997;SDS011;61314;53.444;9.902;2023-04-27T03:30:28;8.75;;;5.70;;
3997;SDS011;61314;53.444;9.902;2023-04-27T03:32:55;11.60;;;6.10;;
3997;SDS011;61314;53.444;9.902;2023-04-27T03:35:22;13.02;;;5.65;;
3997;SDS011;61314;53.444;9.902;2023-04-27T03:37:52;6.07;;;5.38;;
3997;SDS011;61314;53.444;9.902;2023-04-27T03:40:19;6.50;;;5.10;;
3997;SDS011;61314;53.444;9.902;2023-04-27T03:42:46;5.82;;;5.10;;
3997;SDS011;61314;53.444;9.902;2023-04-27T03:45:13;19.08;;;6.93;;
3997;SDS011;61314;53.444;9.902;2023-04-27T03:47:41;7.43;;;5.65;;
3997;SDS011;61314;53.444;9.902;2023-04-27T03:50:08;10.95;;;5.93;;
3997;SDS011;61314;53.444;9.902;2023-04-27T03:52:35;11.23;;;5.80;;
3997;SDS011;61314;53.444;9.902;2023-04-27T03:55:03;10.60;;;5.35;;
3997;SDS011;61314;53.444;9.902;2023-04-27T03:57:30;12.00;;;6.15;;
3997;SDS011;61314;53.444;9.902;2023-04-27T03:59:57;12.32;;;5.15;;
3997;SDS011;61314;53.444;9.902;2023-04-27T04:02:24;10.55;;;4.60;;
3997;SDS011;61314;53.444;9.902;2023-04-27T04:04:52;8.45;;;5.13;;
3997;SDS011;61314;53.444;9.902;2023-04-27T04:07:19;15.90;;;6.60;;
3997;SDS011;61314;53.444;9.902;2023-04-27T04:09:46;6.63;;;4.65;;
3997;SDS011;61314;53.444;9.902;2023-04-27T04:12:13;6.95;;;4.70;;
3997;SDS011;61314;53.444;9.902;2023-04-27T04:14:40;7.85;;;5.50;;
3997;SDS011;61314;53.444;9.902;2023-04-27T04:17:08;11.55;;;5.55;;
3997;SDS011;61314;53.444;9.902;2023-04-27T04:19:36;16.38;;;6.45;;
3997;SDS011;61314;53.444;9.902;2023-04-27T04:22:03;10.55;;;5.75;;
3997;SDS011;61314;53.444;9.902;2023-04-27T04:24:30;8.30;;;5.50;;
3997;SDS011;61314;53.444;9.902;2023-04-27T04:26:57;8.45;;;5.32;;
3997;SDS011;61314;53.444;9.902;2023-04-27T04:29:24;8.40;;;4.68;;
3997;SDS011;61314;53.444;9.902;2023-04-27T04:31:51;8.63;;;5.43;;
3997;SDS011;61314;53.444;9.902;2023-04-27T04:34:19;10.98;;;6.10;;
3997;SDS011;61314;53.444;9.902;2023-04-27T04:36:46;5.75;;;5.13;;
3997;SDS011;61314;53.444;9.902;2023-04-27T04:39:16;6.03;;;4.85;;
3997;SDS011;61314;53.444;9.902;2023-04-27T04:41:46;6.00;;;4.93;;
3997;SDS011;61314;53.444;9.902;2023-04-27T04:44:16;9.82;;;5.30;;
3997;SDS011;61314;53.444;9.902;2023-04-27T04:46:45;9.88;;;6.40;;
3997;SDS011;61314;53.444;9.902;2023-04-27T04:49:12;7.55;;;5.32;;
3997;SDS011;61314;53.444;9.902;2023-04-27T04:51:43;9.05;;;5.43;;
3997;SDS011;61314;53.444;9.902;2023-04-27T04:54:10;10.27;;;5.72;;
3997;SDS011;61314;53.444;9.902;2023-04-27T04:56:37;9.80;;;5.22;;
3997;SDS011;61314;53.444;9.902;2023-04-27T04:59:04;8.05;;;5.55;;
3997;SDS011;61314;53.444;9.902;2023-04-27T05:01:32;12.32;;;5.38;;
3997;SDS011;61314;53.444;9.902;2023-04-27T05:03:59;8.82;;;5.82;;
3997;SDS011;61314;53.444;9.902;2023-04-27T05:06:26;9.60;;;5.70;;
3997;SDS011;61314;53.444;9.902;2023-04-27T05:08:54;9.25;;;5.65;;
3997;SDS011;61314;53.444;9.902;2023-04-27T05:11:21;8.85;;;4.95;;
3997;SDS011;61314;53.444;9.902;2023-04-27T05:13:48;8.07;;;4.75;;
3997;SDS011;61314;53.444;9.902;2023-04-27T05:16:15;8.05;;;5.47;;
3997;SDS011;61314;53.444;9.902;2023-04-27T05:18:42;8.60;;;5.93;;
3997;SDS011;61314;53.444;9.902;2023-04-27T05:21:13;7.75;;;5.20;;
3997;SDS011;61314;53.444;9.902;2023-04-27T05:23:40;11.45;;;4.90;;
3997;SDS011;61314;53.444;9.902;2023-04-27T05:26:14;11.88;;;5.05;;
3997;SDS011;61314;53.444;9.902;2023-04-27T05:28:41;10.27;;;5.38;;
3997;SDS011;61314;53.444;9.902;2023-04-27T05:31:08;11.88;;;5.13;;
3997;SDS011;61314;53.444;9.902;2023-04-27T05:33:36;14.73;;;5.88;;
3997;SDS011;61314;53.444;9.902;2023-04-27T05:36:03;6.65;;;5.35;;
3997;SDS011;61314;53.444;9.902;2023-04-27T05:38:30;8.00;;;6.25;;
3997;SDS011;61314;53.444;9.902;2023-04-27T05:40:59;13.98;;;5.80;;
3997;SDS011;61314;53.444;9.902;2023-04-27T05:43:26;10.93;;;5.10;;
3997;SDS011;61314;53.444;9.902;2023-04-27T05:45:53;8.38;;;5.38;;
3997;SDS011;61314;53.444;9.902;2023-04-27T05:48:20;13.18;;;5.82;;
3997;SDS011;61314;53.444;9.902;2023-04-27T05:50:47;5.65;;;4.78;;
3997;SDS011;61314;53.444;9.902;2023-04-27T05:53:15;15.32;;;5.07;;
3997;SDS011;61314;53.444;9.902;2023-04-27T05:55:42;7.50;;;4.90;;
3997;SDS011;61314;53.444;9.902;2023-04-27T05:58:09;8.77;;;5.30;;
3997;SDS011;61314;53.444;9.902;2023-04-27T06:00:36;15.15;;;5.00;;
3997;SDS011;61314;53.444;9.902;2023-04-27T06:03:04;9.30;;;5.40;;
3997;SDS011;61314;53.444;9.902;2023-04-27T06:05:31;13.65;;;5.20;;
3997;SDS011;61314;53.444;9.902;2023-04-27T06:07:59;7.57;;;4.97;;
3997;SDS011;61314;53.444;9.902;2023-04-27T06:10:26;12.32;;;7.05;;
3997;SDS011;61314;53.444;9.902;2023-04-27T06:12:53;12.48;;;5.32;;
3997;SDS011;61314;53.444;9.902;2023-04-27T06:15:20;6.47;;;5.45;;
3997;SDS011;61314;53.444;9.902;2023-04-27T06:17:47;34.47;;;6.97;;
3997;SDS011;61314;53.444;9.902;2023-04-27T06:20:14;10.02;;;5.90;;
3997;SDS011;61314;53.444;9.902;2023-04-27T06:22:42;7.85;;;5.40;;
3997;SDS011;61314;53.444;9.902;2023-04-27T06:25:09;8.88;;;5.82;;
3997;SDS011;61314;53.444;9.902;2023-04-27T06:27:36;8.27;;;5.47;;
3997;SDS011;61314;53.444;9.902;2023-04-27T06:30:03;12.02;;;5.88;;
3997;SDS011;61314;53.444;9.902;2023-04-27T06:32:31;11.82;;;5.90;;
3997;SDS011;61314;53.444;9.902;2023-04-27T06:34:58;16.15;;;6.00;;
3997;SDS011;61314;53.444;9.902;2023-04-27T06:37:25;10.52;;;6.82;;
3997;SDS011;61314;53.444;9.902;2023-04-27T06:39:52;15.57;;;6.00;;
3997;SDS011;61314;53.444;9.902;2023-04-27T06:42:19;13.80;;;5.47;;
3997;SDS011;61314;53.444;9.902;2023-04-27T06:44:46;12.35;;;4.63;;
3997;SDS011;61314;53.444;9.902;2023-04-27T06:47:13;7.22;;;4.30;;
3997;SDS011;61314;53.444;9.902;2023-04-27T06:49:41;8.15;;;4.22;;
3997;SDS011;61314;53.444;9.902;2023-04-27T06:52:08;7.10;;;4.22;;
3997;SDS011;61314;53.444;9.902;2023-04-27T06:54:35;10.90;;;5.05;;
3997;SDS011;61314;53.444;9.902;2023-04-27T06:57:02;6.75;;;4.25;;
3997;SDS011;61314;53.444;9.902;2023-04-27T06:59:29;4.03;;;3.67;;
3997;SDS011;61314;53.444;9.902;2023-04-27T07:01:56;8.27;;;3.83;;
3997;SDS011;61314;53.444;9.902;2023-04-27T07:04:24;7.72;;;4.20;;
3997;SDS011;61314;53.444;9.902;2023-04-27T07:06:51;5.95;;;4.70;;
3997;SDS011;61314;53.444;9.902;2023-04-27T07:09:18;5.28;;;4.07;;
3997;SDS011;61314;53.444;9.902;2023-04-27T07:11:51;10.88;;;4.72;;
3997;SDS011;61314;53.444;9.902;2023-04-27T07:14:18;5.35;;;3.65;;
3997;SDS011;61314;53.444;9.902;2023-04-27T07:16:45;4.30;;;4.00;;
3997;SDS011;61314;53.444;9.902;2023-04-27T07:19:12;4.55;;;3.60;;
3997;SDS011;61314;53.444;9.902;2023-04-27T07:21:40;7.65;;;2.92;;
3997;SDS011;61314;53.444;9.902;2023-04-27T07:24:07;3.75;;;3.15;;
3997;SDS011;61314;53.444;9.902;2023-04-27T07:26:34;4.40;;;3.30;;
3997;SDS011;61314;53.444;9.902;2023-04-27T07:29:02;3.05;;;2.85;;
3997;SDS011;61314;53.444;9.902;2023-04-27T07:31:48;4.43;;;2.72;;
3997;SDS011;61314;53.444;9.902;2023-04-27T07:34:17;4.88;;;2.70;;
3997;SDS011;61314;53.444;9.902;2023-04-27T07:36:44;5.50;;;2.50;;
3997;SDS011;61314;53.444;9.902;2023-04-27T07:39:11;3.22;;;2.97;;
3997;SDS011;61314;53.444;9.902;2023-04-27T07:41:39;6.22;;;3.00;;
3997;SDS011;61314;53.444;9.902;2023-04-27T07:44:06;7.45;;;3.25;;
3997;SDS011;61314;53.444;9.902;2023-04-27T07:46:34;9.15;;;2.88;;
3997;SDS011;61314;53.444;9.902;2023-04-27T07:49:01;7.75;;;3.45;;
3997;SDS011;61314;53.444;9.902;2023-04-27T07:51:29;5.68;;;2.83;;
3997;SDS011;61314;53.444;9.902;2023-04-27T07:53:56;3.40;;;3.10;;
3997;SDS011;61314;53.444;9.902;2023-04-27T07:56:23;7.93;;;4.30;;
3997;SDS011;61314;53.444;9.902;2023-04-27T07:58:50;7.55;;;3.50;;
3997;SDS011;61314;53.444;9.902;2023-04-27T08:01:17;6.32;;;3.67;;
3997;SDS011;61314;53.444;9.902;2023-04-27T08:03:46;2.58;;;2.10;;
3997;SDS011;61314;53.444;9.902;2023-04-27T08:06:14;6.50;;;3.00;;
3997;SDS011;61314;53.444;9.902;2023-04-27T08:08:41;5.85;;;3.08;;
3997;SDS011;61314;53.444;9.902;2023-04-27T08:11:09;6.38;;;3.05;;
3997;SDS011;61314;53.444;9.902;2023-04-27T08:13:36;3.00;;;2.80;;
3997;SDS011;61314;53.444;9.902;2023-04-27T08:16:03;3.80;;;2.08;;
3997;SDS011;61314;53.444;9.902;2023-04-27T08:18:30;4.32;;;2.58;;
3997;SDS011;61314;53.444;9.902;2023-04-27T08:20:56;3.38;;;2.28;;
3997;SDS011;61314;53.444;9.902;2023-04-27T08:23:26;9.60;;;2.42;;
3997;SDS011;61314;53.444;9.902;2023-04-27T08:25:53;7.85;;;2.70;;
3997;SDS011;61314;53.444;9.902;2023-04-27T08:28:20;2.90;;;2.60;;
3997;SDS011;61314;53.444;9.902;2023-04-27T08:30:48;10.53;;;3.33;;
3997;SDS011;61314;53.444;9.902;2023-04-27T08:33:14;6.93;;;3.00;;
3997;SDS011;61314;53.444;9.902;2023-04-27T08:35:41;8.45;;;2.88;;
3997;SDS011;61314;53.444;9.902;2023-04-27T08:38:08;2.90;;;2.60;;
3997;SDS011;61314;53.444;9.902;2023-04-27T08:40:34;6.13;;;3.10;;
3997;SDS011;61314;53.444;9.902;2023-04-27T08:43:01;5.67;;;3.23;;
3997;SDS011;61314;53.444;9.902;2023-04-27T08:45:28;9.77;;;3.22;;
3997;SDS011;61314;53.444;9.902;2023-04-27T08:47:54;6.40;;;3.00;;
3997;SDS011;61314;53.444;9.902;2023-04-27T08:50:21;5.20;;;2.80;;
3997;SDS011;61314;53.444;9.902;2023-04-27T08:52:49;3.70;;;3.37;;
3997;SDS011;61314;53.444;9.902;2023-04-27T08:55:17;5.20;;;2.30;;
3997;SDS011;61314;53.444;9.902;2023-04-27T08:57:54;6.07;;;2.50;;
3997;SDS011;61314;53.444;9.902;2023-04-27T09:00:22;5.23;;;2.70;;
3997;SDS011;61314;53.444;9.902;2023-04-27T09:02:50;9.98;;;2.40;;
3997;SDS011;61314;53.444;9.902;2023-04-27T09:05:26;7.72;;;2.47;;
3997;SDS011;61314;53.444;9.902;2023-04-27T09:07:56;6.70;;;2.57;;
3997;SDS011;61314;53.444;9.902;2023-04-27T09:10:22;5.33;;;2.63;;
3997;SDS011;61314;53.444;9.902;2023-04-27T09:12:53;2.70;;;2.50;;
3997;SDS011;61314;53.444;9.902;2023-04-27T09:15:21;7.10;;;3.33;;
3997;SDS011;61314;53.444;9.902;2023-04-27T09:17:54;3.50;;;3.20;;
3997;SDS011;61314;53.444;9.902;2023-04-27T09:20:22;2.90;;;2.70;;
3997;SDS011;61314;53.444;9.902;2023-04-27T09:22:50;3.30;;;2.93;;
3997;SDS011;61314;53.444;9.902;2023-04-27T09:27:54;5.00;;;2.67;;
3997;SDS011;61314;53.444;9.902;2023-04-27T09:30:21;2.60;;;2.50;;
3997;SDS011;61314;53.444;9.902;2023-04-27T09:35:23;5.20;;;2.70;;
3997;SDS011;61314;53.444;9.902;2023-04-27T09:37:52;2.80;;;2.10;;
3997;SDS011;61314;53.444;9.902;2023-04-27T09:40:20;4.43;;;2.90;;
3997;SDS011;61314;53.444;9.902;2023-04-27T09:42:55;5.00;;;3.20;;
3997;SDS011;61314;53.444;9.902;2023-04-27T09:45:23;2.43;;;2.10;;
3997;SDS011;61314;53.444;9.902;2023-04-27T09:47:50;4.70;;;3.33;;
3997;SDS011;61314;53.444;9.902;2023-04-27T09:50:17;6.23;;;2.70;;
3997;SDS011;61314;53.444;9.902;2023-04-27T09:52:45;7.43;;;2.50;;
3997;SDS011;61314;53.444;9.902;2023-04-27T09:55:19;6.07;;;3.17;;
3997;SDS011;61314;53.444;9.902;2023-04-27T10:03:48;3.87;;;2.90;;
3997;SDS011;61314;53.444;9.902;2023-04-27T10:09:02;2.67;;;2.47;;
3997;SDS011;61314;53.444;9.902;2023-04-27T10:11:40;2.63;;;2.37;;
3997;SDS011;61314;53.444;9.902;2023-04-27T10:14:13;3.00;;;2.63;;
3997;SDS011;61314;53.444;9.902;2023-04-27T10:16:50;4.37;;;2.03;;
3997;SDS011;61314;53.444;9.902;2023-04-27T10:19:19;4.77;;;2.50;;
3997;SDS011;61314;53.444;9.902;2023-04-27T10:21:53;2.80;;;2.60;;
3997;SDS011;61314;53.444;9.902;2023-04-27T10:24:35;5.33;;;2.40;;
3997;SDS011;61314;53.444;9.902;2023-04-27T10:27:06;5.03;;;2.50;;
3997;SDS011;61314;53.444;9.902;2023-04-27T10:29:35;2.80;;;2.60;;
3997;SDS011;61314;53.444;9.902;2023-04-27T10:32:07;2.70;;;2.50;;
3997;SDS011;61314;53.444;9.902;2023-04-27T10:34:35;10.70;;;2.70;;
3997;SDS011;61314;53.444;9.902;2023-04-27T10:37:09;2.80;;;2.60;;
3997;SDS011;61314;53.444;9.902;2023-04-27T10:39:39;5.40;;;3.13;;
3997;SDS011;61314;53.444;9.902;2023-04-27T10:42:24;5.20;;;2.87;;
3997;SDS011;61314;53.444;9.902;2023-04-27T10:44:55;9.80;;;3.23;;
3997;SDS011;61314;53.444;9.902;2023-04-27T10:47:22;2.97;;;2.77;;
3997;SDS011;61314;53.444;9.902;2023-04-27T10:49:53;4.67;;;3.00;;
3997;SDS011;61314;53.444;9.902;2023-04-27T10:52:20;3.83;;;3.10;;
3997;SDS011;61314;53.444;9.902;2023-04-27T10:54:47;4.07;;;3.67;;
3997;SDS011;61314;53.444;9.902;2023-04-27T10:57:13;5.70;;;3.00;;
3997;SDS011;61314;53.444;9.902;2023-04-27T10:59:48;5.23;;;3.00;;
3997;SDS011;61314;53.444;9.902;2023-04-27T11:02:15;5.10;;;3.33;;
3997;SDS011;61314;53.444;9.902;2023-04-27T11:04:43;3.90;;;3.40;;
3997;SDS011;61314;53.444;9.902;2023-04-27T11:07:10;4.33;;;3.60;;
3997;SDS011;61314;53.444;9.902;2023-04-27T11:09:38;7.30;;;3.93;;
3997;SDS011;61314;53.444;9.902;2023-04-27T11:12:06;7.43;;;3.37;;
3997;SDS011;61314;53.444;9.902;2023-04-27T11:14:34;5.33;;;3.60;;
3997;SDS011;61314;53.444;9.902;2023-04-27T11:17:02;5.70;;;3.73;;
3997;SDS011;61314;53.444;9.902;2023-04-27T11:19:30;7.23;;;3.83;;
3997;SDS011;61314;53.444;9.902;2023-04-27T11:22:04;7.20;;;3.30;;
3997;SDS011;61314;53.444;9.902;2023-04-27T11:24:31;7.33;;;4.40;;
3997;SDS011;61314;53.444;9.902;2023-04-27T11:26:59;6.50;;;3.43;;
3997;SDS011;61314;53.444;9.902;2023-04-27T11:29:36;7.53;;;3.53;;
3997;SDS011;61314;53.444;9.902;2023-04-27T11:32:03;4.43;;;3.67;;
3997;SDS011;61314;53.444;9.902;2023-04-27T11:34:31;4.53;;;3.40;;
3997;SDS011;61314;53.444;9.902;2023-04-27T11:37:04;3.43;;;3.13;;
3997;SDS011;61314;53.444;9.902;2023-04-27T11:39:43;3.17;;;2.90;;
3997;SDS011;61314;53.444;9.902;2023-04-27T11:42:21;4.40;;;3.83;;
3997;SDS011;61314;53.444;9.902;2023-04-27T11:44:50;4.27;;;3.83;;
3997;SDS011;61314;53.444;9.902;2023-04-27T11:47:17;6.47;;;4.30;;
3997;SDS011;61314;53.444;9.902;2023-04-27T11:49:47;4.60;;;4.13;;
3997;SDS011;61314;53.444;9.902;2023-04-27T11:52:15;8.23;;;3.53;;
3997;SDS011;61314;53.444;9.902;2023-04-27T11:54:49;4.10;;;3.70;;
3997;SDS011;61314;53.444;9.902;2023-04-27T11:57:23;5.00;;;3.20;;
3997;SDS011;61314;53.444;9.902;2023-04-27T11:59:51;4.50;;;3.83;;
3997;SDS011;61314;53.444;9.902;2023-04-27T12:02:19;5.53;;;4.10;;
3997;SDS011;61314;53.444;9.902;2023-04-27T12:04:49;4.60;;;3.13;;
3997;SDS011;61314;53.444;9.902;2023-04-27T12:07:17;5.03;;;3.57;;
3997;SDS011;61314;53.444;9.902;2023-04-27T12:09:44;5.70;;;3.20;;
3997;SDS011;61314;53.444;9.902;2023-04-27T12:12:12;4.47;;;3.80;;
3997;SDS011;61314;53.444;9.902;2023-04-27T12:14:39;4.87;;;4.07;;
3997;SDS011;61314;53.444;9.902;2023-04-27T12:17:07;5.60;;;3.80;;
3997;SDS011;61314;53.444;9.902;2023-04-27T12:19:34;3.73;;;3.17;;
3997;SDS011;61314;53.444;9.902;2023-04-27T12:22:02;4.13;;;3.77;;
3997;SDS011;61314;53.444;9.902;2023-04-27T12:24:29;8.97;;;3.60;;
3997;SDS011;61314;53.444;9.902;2023-04-27T12:26:57;6.30;;;3.90;;
3997;SDS011;61314;53.444;9.902;2023-04-27T12:29:24;4.53;;;3.30;;
3997;SDS011;61314;53.444;9.902;2023-04-27T12:31:51;5.33;;;3.43;;
3997;SDS011;61314;53.444;9.902;2023-04-27T12:34:18;5.13;;;3.80;;
3997;SDS011;61314;53.444;9.902;2023-04-27T12:36:45;4.50;;;3.93;;
3997;SDS011;61314;53.444;9.902;2023-04-27T12:39:14;3.53;;;3.23;;
3997;SDS011;61314;53.444;9.902;2023-04-27T12:41:42;7.00;;;3.70;;
3997;SDS011;61314;53.444;9.902;2023-04-27T12:44:10;4.87;;;3.90;;
3997;SDS011;61314;53.444;9.902;2023-04-27T12:46:38;5.00;;;3.60;;
3997;SDS011;61314;53.444;9.902;2023-04-27T12:49:06;5.37;;;3.60;;
3997;SDS011;61314;53.444;9.902;2023-04-27T12:51:33;8.10;;;4.60;;
3997;SDS011;61314;53.444;9.902;2023-04-27T12:54:01;7.50;;;4.00;;
3997;SDS011;61314;53.444;9.902;2023-04-27T12:56:29;8.07;;;3.57;;
3997;SDS011;61314;53.444;9.902;2023-04-27T12:58:57;3.97;;;3.50;;
3997;SDS011;61314;53.444;9.902;2023-04-27T13:01:27;4.33;;;4.03;;
3997;SDS011;61314;53.444;9.902;2023-04-27T13:03:54;4.70;;;3.40;;
3997;SDS011;61314;53.444;9.902;2023-04-27T13:06:23;3.47;;;3.17;;
3997;SDS011;61314;53.444;9.902;2023-04-27T13:08:50;5.20;;;3.33;;
3997;SDS011;61314;53.444;9.902;2023-04-27T13:11:17;6.13;;;3.13;;
3997;SDS011;61314;53.444;9.902;2023-04-27T13:13:45;5.50;;;3.50;;
3997;SDS011;61314;53.444;9.902;2023-04-27T13:16:13;3.77;;;3.10;;
3997;SDS011;61314;53.444;9.902;2023-04-27T13:18:41;3.43;;;3.13;;
3997;SDS011;61314;53.444;9.902;2023-04-27T13:21:14;4.30;;;2.97;;
3997;SDS011;61314;53.444;9.902;2023-04-27T13:23:41;4.13;;;2.93;;
3997;SDS011;61314;53.444;9.902;2023-04-27T13:26:08;3.13;;;2.83;;
3997;SDS011;61314;53.444;9.902;2023-04-27T13:28:36;3.87;;;3.43;;
3997;SDS011;61314;53.444;9.902;2023-04-27T13:31:03;4.13;;;3.67;;
3997;SDS011;61314;53.444;9.902;2023-04-27T13:33:31;7.10;;;3.50;;
3997;SDS011;61314;53.444;9.902;2023-04-27T13:35:58;3.67;;;3.20;;
3997;SDS011;61314;53.444;9.902;2023-04-27T13:38:27;3.00;;;2.80;;
3997;SDS011;61314;53.444;9.902;2023-04-27T13:40:54;3.93;;;2.90;;
3997;SDS011;61314;53.444;9.902;2023-04-27T13:43:21;3.47;;;2.93;;
3997;SDS011;61314;53.444;9.902;2023-04-27T13:45:48;3.57;;;3.20;;
3997;SDS011;61314;53.444;9.902;2023-04-27T13:48:17;4.73;;;3.47;;
3997;SDS011;61314;53.444;9.902;2023-04-27T13:50:44;8.60;;;3.17;;
3997;SDS011;61314;53.444;9.902;2023-04-27T13:53:11;6.70;;;2.70;;
3997;SDS011;61314;53.444;9.902;2023-04-27T13:55:38;8.23;;;2.43;;
3997;SDS011;61314;53.444;9.902;2023-04-27T13:58:06;4.00;;;3.03;;
3997;SDS011;61314;53.444;9.902;2023-04-27T14:00:33;9.17;;;3.17;;
3997;SDS011;61314;53.444;9.902;2023-04-27T14:03:00;2.97;;;2.70;;
3997;SDS011;61314;53.444;9.902;2023-04-27T14:05:29;4.97;;;3.10;;
3997;SDS011;61314;53.444;9.902;2023-04-27T14:07:57;4.33;;;2.60;;
3997;SDS011;61314;53.444;9.902;2023-04-27T14:10:24;5.53;;;2.80;;
3997;SDS011;61314;53.444;9.902;2023-04-27T14:12:51;2.97;;;2.77;;
3997;SDS011;61314;53.444;9.902;2023-04-27T14:15:18;3.90;;;2.50;;
3997;SDS011;61314;53.444;9.902;2023-04-27T14:17:45;3.30;;;2.43;;
3997;SDS011;61314;53.444;9.902;2023-04-27T14:20:12;5.20;;;3.03;;
3997;SDS011;61314;53.444;9.902;2023-04-27T14:22:39;3.27;;;2.70;;
3997;SDS011;61314;53.444;9.902;2023-04-27T14:25:06;2.83;;;2.40;;
3997;SDS011;61314;53.444;9.902;2023-04-27T14:27:34;4.13;;;2.77;;
3997;SDS011;61314;53.444;9.902;2023-04-27T14:30:01;3.50;;;3.20;;
3997;SDS011;61314;53.444;9.902;2023-04-27T14:32:28;3.90;;;3.50;;
3997;SDS011;61314;53.444;9.902;2023-04-27T14:34:55;3.53;;;3.23;;
3997;SDS011;61314;53.444;9.902;2023-04-27T14:37:22;4.37;;;3.60;;
3997;SDS011;61314;53.444;9.902;2023-04-27T14:39:49;6.33;;;2.73;;
3997;SDS011;61314;53.444;9.902;2023-04-27T14:42:16;6.27;;;3.23;;
3997;SDS011;61314;53.444;9.902;2023-04-27T14:44:43;5.40;;;3.20;;
3997;SDS011;61314;53.444;9.902;2023-04-27T14:47:13;9.93;;;3.80;;
3997;SDS011;61314;53.444;9.902;2023-04-27T14:49:41;3.70;;;3.10;;
3997;SDS011;61314;53.444;9.902;2023-04-27T14:52:07;7.03;;;3.63;;
3997;SDS011;61314;53.444;9.902;2023-04-27T14:54:34;5.30;;;3.40;;
3997;SDS011;61314;53.444;9.902;2023-04-27T14:57:03;4.50;;;3.33;;
3997;SDS011;61314;53.444;9.902;2023-04-27T14:59:30;3.20;;;3.00;;
3997;SDS011;61314;53.444;9.902;2023-04-27T15:01:59;4.93;;;3.57;;
3997;SDS011;61314;53.444;9.902;2023-04-27T15:04:26;8.00;;;3.60;;
3997;SDS011;61314;53.444;9.902;2023-04-27T15:06:53;7.07;;;3.50;;
3997;SDS011;61314;53.444;9.902;2023-04-27T15:09:20;4.03;;;3.73;;
3997;SDS011;61314;53.444;9.902;2023-04-27T15:11:47;3.60;;;3.30;;
3997;SDS011;61314;53.444;9.902;2023-04-27T15:14:14;5.10;;;3.60;;
3997;SDS011;61314;53.444;9.902;2023-04-27T15:16:41;3.50;;;3.10;;